Time;durP1;ratioP1;P1;durP2;ratioP2;P2;SDS_P1;SDS_P2;PMS_P1;PMS_P2;Temp;Humidity;BMP_temperature;BMP_pressure;BME280_temperature;BME280_humidity;BME280_pressure;Samples;Min_cycle;Max_cycle;Signal;HPM_P1;HPM_P2
2022/02/11 00:00:08;;;;;;;5.60;4.03;;;5.90;99.90;;;;;;5040148;28;20736;-49
2022/02/11 00:07:39;;;;;;;7.53;4.18;;;6.00;99.90;;;;;;4942040;28;20055;-53
2022/02/11 00:10:06;;;;;;;5.07;3.95;;;6.00;99.90;;;;;;4951125;28;20476;-53
2022/02/11 00:12:32;;;;;;;7.15;4.75;;;6.00;99.90;;;;;;4950293;28;20027;-53
2022/02/11 00:17:27;;;;;;;6.28;3.90;;;6.00;99.90;;;;;;4954607;28;20035;-52
2022/02/11 00:19:52;;;;;;;6.05;3.60;;;6.00;99.90;;;;;;4955861;28;20127;-52
2022/02/11 00:24:54;;;;;;;8.18;4.20;;;6.10;99.90;;;;;;5133678;23;20490;-49
2022/02/11 00:35:07;;;;;;;9.38;4.13;;;6.20;99.90;;;;;;5318514;23;20052;-51
2022/02/11 00:37:37;;;;;;;7.22;4.40;;;6.20;99.90;;;;;;4943248;28;20408;-50
2022/02/11 00:40:40;;;;;;;7.57;4.22;;;6.20;99.90;;;;;;4942230;28;20502;-50
2022/02/11 00:44:15;;;;;;;8.55;4.15;;;6.20;99.90;;;;;;4941768;28;20047;-52
2022/02/11 00:46:04;;;;;;;9.25;4.05;;;6.30;99.90;;;;;;4936461;28;20443;-53
2022/02/11 01:04:25;;;;;;;7.78;4.65;;;6.30;99.90;;;;;;4943693;28;20116;-50
2022/02/11 01:06:51;;;;;;;9.45;4.10;;;6.30;99.90;;;;;;4939116;28;20060;-52
2022/02/11 01:09:17;;;;;;;8.52;4.20;;;6.30;99.90;;;;;;4946010;28;20038;-51
2022/02/11 01:11:53;;;;;;;8.95;4.50;;;6.30;99.90;;;;;;4943433;28;20038;-51
2022/02/11 01:14:30;;;;;;;8.63;4.65;;;6.30;99.90;;;;;;4942405;28;20039;-51
2022/02/11 01:16:58;;;;;;;7.80;4.53;;;6.40;99.90;;;;;;4939721;28;20023;-51
2022/02/11 01:37:55;;;;;;;9.02;3.55;;;6.30;99.90;;;;;;5802105;23;20065;-49
2022/02/11 01:40:56;;;;;;;8.15;4.03;;;6.30;99.90;;;;;;4936862;28;20510;-51
2022/02/11 01:51:37;;;;;;;10.88;4.45;;;6.40;99.90;;;;;;4939113;28;20034;-51
2022/02/11 01:54:12;;;;;;;10.75;4.30;;;6.40;99.90;;;;;;4939572;28;20042;-49
2022/02/11 01:59:42;;;;;;;8.57;4.68;;;6.40;99.90;;;;;;5067796;23;20067;-48
2022/02/11 02:19:04;;;;;;;6.28;4.30;;;6.40;99.90;;;;;;4929883;29;20092;-52
2022/02/11 02:37:21;;;;;;;7.03;4.07;;;6.40;99.90;;;;;;4927568;29;20038;-53
2022/02/11 02:56:47;;;;;;;9.00;4.55;;;6.40;99.90;;;;;;4925827;29;21021;-53
2022/02/11 03:14:40;;;;;;;8.63;3.58;;;6.30;99.90;;;;;;4926813;29;20050;-52
2022/02/11 04:55:37;;;;;;;6.50;4.63;;;5.30;99.90;;;;;;4927615;29;20043;-52
2022/02/11 05:00:48;;;;;;;6.57;4.28;;;5.20;99.90;;;;;;4927091;29;20075;-52
2022/02/11 05:03:15;;;;;;;8.60;5.22;;;5.10;99.90;;;;;;4925245;28;20031;-52
2022/02/11 05:05:49;;;;;;;7.05;4.47;;;5.20;99.90;;;;;;4926465;29;20036;-51
2022/02/11 05:08:16;;;;;;;7.75;5.20;;;5.20;99.90;;;;;;4926841;29;21069;-51
2022/02/11 05:10:43;;;;;;;8.95;5.15;;;5.10;99.90;;;;;;4924647;29;20035;-51
2022/02/11 05:13:09;;;;;;;12.43;5.25;;;5.10;99.90;;;;;;4930041;29;20032;-52
2022/02/11 05:15:34;;;;;;;7.15;4.90;;;5.10;99.90;;;;;;4928836;29;20032;-51
2022/02/11 05:18:01;;;;;;;6.97;4.68;;;5.10;99.90;;;;;;4928524;29;20028;-53
2022/02/11 05:20:26;;;;;;;9.52;5.05;;;5.10;99.90;;;;;;4928041;29;20444;-51
2022/02/11 05:22:52;;;;;;;10.13;6.18;;;5.00;99.90;;;;;;4929040;29;20103;-51
2022/02/11 05:25:18;;;;;;;11.10;5.53;;;5.00;99.90;;;;;;4930359;29;21555;-51
2022/02/11 05:27:43;;;;;;;9.88;5.55;;;4.90;99.90;;;;;;4930460;29;20160;-52
2022/02/11 05:30:09;;;;;;;7.47;5.28;;;4.90;99.90;;;;;;4930901;29;20027;-52
2022/02/11 05:32:35;;;;;;;10.05;5.65;;;5.00;99.90;;;;;;4929635;29;20135;-52
2022/02/11 05:35:01;;;;;;;9.82;6.40;;;5.00;99.90;;;;;;4932761;29;20075;-53
2022/02/11 05:37:26;;;;;;;11.18;5.90;;;4.90;99.90;;;;;;4928970;29;20314;-51
2022/02/11 05:39:52;;;;;;;10.80;6.35;;;4.90;99.90;;;;;;4929037;29;20032;-51
2022/02/11 05:42:18;;;;;;;9.85;6.10;;;4.90;99.90;;;;;;4931594;29;20491;-51
2022/02/11 05:44:43;;;;;;;10.13;6.18;;;4.90;99.90;;;;;;4932060;29;20039;-51
2022/02/11 05:47:09;;;;;;;10.70;5.65;;;4.90;99.90;;;;;;4926641;29;20032;-51
2022/02/11 05:49:34;;;;;;;9.35;5.93;;;4.90;99.90;;;;;;4927733;28;20055;-51
2022/02/11 05:52:00;;;;;;;7.90;6.07;;;4.80;99.90;;;;;;4931705;28;20069;-51
2022/02/11 05:54:26;;;;;;;7.82;4.45;;;4.70;99.90;;;;;;4928568;29;20032;-51
2022/02/11 05:56:51;;;;;;;8.07;4.90;;;4.70;99.90;;;;;;4931796;29;20023;-52
2022/02/11 05:59:18;;;;;;;9.50;5.75;;;4.70;99.90;;;;;;4925739;29;20055;-51
2022/02/11 06:01:43;;;;;;;9.05;5.15;;;4.70;99.90;;;;;;4929579;29;20040;-51
2022/02/11 06:04:09;;;;;;;7.45;4.72;;;4.70;99.90;;;;;;4928875;29;20042;-51
2022/02/11 06:06:34;;;;;;;7.35;5.15;;;4.70;99.90;;;;;;4927955;29;20031;-51
2022/02/11 06:09:00;;;;;;;6.78;4.47;;;4.70;99.90;;;;;;4931889;29;20063;-52
2022/02/11 06:11:29;;;;;;;6.07;3.55;;;4.70;99.90;;;;;;4935274;29;20043;-51
2022/02/11 06:13:55;;;;;;;9.00;4.30;;;4.60;99.90;;;;;;4933540;29;20036;-51
2022/02/11 06:16:21;;;;;;;17.63;4.50;;;4.60;99.90;;;;;;4932213;29;20035;-53
2022/02/11 06:18:47;;;;;;;7.22;4.10;;;4.60;99.90;;;;;;4933561;28;20040;-51
2022/02/11 06:21:12;;;;;;;4.18;3.55;;;4.60;99.90;;;;;;4930787;29;20063;-51
2022/02/11 06:23:38;;;;;;;5.50;3.50;;;4.50;99.90;;;;;;4932784;29;20118;-51
2022/02/11 06:26:04;;;;;;;4.20;3.40;;;4.50;99.90;;;;;;4935406;28;20031;-52
2022/02/11 06:28:29;;;;;;;4.68;2.78;;;4.50;99.90;;;;;;4936013;29;20552;-51
2022/02/11 06:30:55;;;;;;;3.83;2.63;;;4.40;99.90;;;;;;4933886;28;20035;-51
2022/02/11 06:33:20;;;;;;;4.35;2.97;;;4.40;99.90;;;;;;4931157;29;20051;-51
2022/02/11 06:35:47;;;;;;;3.22;2.58;;;4.30;99.90;;;;;;4935329;28;20028;-53
2022/02/11 06:38:12;;;;;;;2.28;2.08;;;4.30;99.90;;;;;;4930747;29;20039;-52
2022/02/11 06:40:38;;;;;;;2.70;1.85;;;4.30;99.90;;;;;;4936701;29;20039;-53
2022/02/11 06:43:06;;;;;;;1.95;1.83;;;4.20;99.90;;;;;;4932792;29;20060;-51
2022/02/11 06:45:32;;;;;;;4.13;2.60;;;4.20;99.90;;;;;;4935139;29;20035;-52
2022/02/11 06:47:58;;;;;;;2.95;1.80;;;4.10;99.90;;;;;;4932686;29;20126;-52
2022/02/11 06:50:23;;;;;;;2.60;2.00;;;4.10;99.90;;;;;;4938975;29;20060;-51
2022/02/11 06:52:49;;;;;;;2.17;2.00;;;4.10;99.90;;;;;;4936477;29;20055;-51
2022/02/11 06:55:16;;;;;;;2.28;2.08;;;4.10;99.90;;;;;;4934072;29;20043;-51
2022/02/11 06:57:44;;;;;;;2.95;2.20;;;4.00;99.90;;;;;;4932420;29;20052;-50
2022/02/11 07:00:12;;;;;;;2.35;2.20;;;3.90;99.90;;;;;;4933248;29;20042;-50
2022/02/11 07:02:38;;;;;;;1.70;1.60;;;3.90;99.90;;;;;;4927848;29;20052;-51
2022/02/11 07:05:04;;;;;;;2.55;1.90;;;3.90;99.90;;;;;;4925206;29;20039;-51
2022/02/11 07:07:30;;;;;;;2.55;1.80;;;3.90;99.90;;;;;;4926592;29;20035;-51
2022/02/11 07:09:56;;;;;;;2.13;1.92;;;3.90;99.90;;;;;;4926985;29;20034;-50
2022/02/11 07:12:21;;;;;;;1.85;1.75;;;3.90;99.90;;;;;;4925866;29;20031;-51
2022/02/11 07:14:47;;;;;;;1.50;1.40;;;3.90;99.90;;;;;;4923277;29;20040;-51
2022/02/11 07:17:13;;;;;;;2.05;1.85;;;3.80;99.90;;;;;;4926270;29;20996;-52
2022/02/11 07:19:39;;;;;;;1.63;1.52;;;3.70;99.90;;;;;;4925554;29;20035;-52
2022/02/11 07:22:05;;;;;;;1.50;1.25;;;3.60;99.90;;;;;;4924614;29;20087;-53
2022/02/11 07:24:31;;;;;;;2.13;1.92;;;3.60;99.90;;;;;;4927616;29;20035;-53
2022/02/11 07:26:57;;;;;;;1.70;1.60;;;3.60;99.90;;;;;;4930990;29;20035;-51
2022/02/11 07:29:23;;;;;;;1.70;1.42;;;3.60;99.90;;;;;;4929127;29;20445;-52
2022/02/11 07:31:49;;;;;;;1.50;1.40;;;3.60;99.90;;;;;;4943553;28;20040;-52
2022/02/11 07:34:15;;;;;;;1.30;1.30;;;3.60;99.90;;;;;;4930909;29;20055;-53
2022/02/11 07:36:41;;;;;;;1.50;1.40;;;3.50;99.90;;;;;;4930057;29;20338;-51
2022/02/11 07:39:07;;;;;;;1.33;1.30;;;3.50;99.90;;;;;;4929837;29;20035;-52
2022/02/11 07:41:33;;;;;;;1.60;1.50;;;3.50;99.90;;;;;;4931397;29;20088;-52
2022/02/11 07:43:59;;;;;;;1.50;1.50;;;3.60;99.90;;;;;;4931508;29;20523;-51
2022/02/11 07:46:25;;;;;;;1.17;1.17;;;3.60;99.90;;;;;;4932572;29;20027;-51
2022/02/11 07:48:50;;;;;;;1.48;1.40;;;3.50;99.90;;;;;;4930860;29;20051;-51
2022/02/11 07:51:16;;;;;;;1.80;1.70;;;3.50;99.90;;;;;;4931591;29;20934;-51
2022/02/11 07:53:45;;;;;;;1.98;1.77;;;3.50;99.90;;;;;;4929964;29;20038;-52
2022/02/11 07:56:11;;;;;;;1.63;1.58;;;3.50;99.90;;;;;;4930584;29;20028;-51
2022/02/11 07:58:37;;;;;;;1.90;1.80;;;3.40;99.90;;;;;;4930095;29;22297;-53
2022/02/11 08:01:02;;;;;;;1.90;1.80;;;3.40;99.90;;;;;;4927939;29;20042;-51
2022/02/11 08:03:28;;;;;;;1.98;1.88;;;3.40;99.90;;;;;;4929861;29;20059;-52
2022/02/11 08:05:54;;;;;;;2.03;1.92;;;3.40;99.90;;;;;;4929399;29;20154;-51
2022/02/11 08:08:23;;;;;;;2.22;2.10;;;3.40;99.90;;;;;;4928016;29;20039;-52
2022/02/11 08:10:48;;;;;;;2.47;2.30;;;3.40;99.90;;;;;;4927877;29;20083;-54
2022/02/11 08:13:14;;;;;;;2.40;2.20;;;3.40;99.90;;;;;;4929741;28;20035;-52
2022/02/11 08:15:40;;;;;;;2.80;2.55;;;3.30;99.90;;;;;;4928734;29;20051;-53
2022/02/11 08:18:05;;;;;;;2.40;2.10;;;3.30;99.90;;;;;;4930441;29;20162;-52
2022/02/11 08:20:31;;;;;;;3.03;2.38;;;3.40;99.90;;;;;;4931163;29;20032;-51
2022/02/11 08:22:57;;;;;;;3.20;1.92;;;3.40;99.90;;;;;;4928793;29;20118;-51
2022/02/11 08:25:23;;;;;;;2.42;2.22;;;3.30;99.90;;;;;;4930057;29;20068;-53
2022/02/11 08:27:50;;;;;;;3.17;2.88;;;3.30;99.90;;;;;;4930987;29;20043;-52
2022/02/11 08:30:16;;;;;;;2.70;2.50;;;3.30;99.90;;;;;;4935699;29;20094;-53
2022/02/11 08:32:42;;;;;;;3.95;2.60;;;3.30;99.90;;;;;;4935571;28;20031;-53
2022/02/11 08:35:08;;;;;;;3.70;3.10;;;3.30;99.90;;;;;;4935460;29;20034;-52
2022/02/11 08:37:34;;;;;;;5.40;2.90;;;3.30;99.90;;;;;;4936984;29;20047;-53
2022/02/11 08:40:00;;;;;;;4.35;3.30;;;3.30;99.90;;;;;;4935232;29;20039;-51
2022/02/11 08:42:25;;;;;;;3.78;3.17;;;3.20;99.90;;;;;;4936504;29;20043;-52
2022/02/11 08:44:51;;;;;;;3.60;3.13;;;3.30;99.90;;;;;;4934915;29;20043;-51
2022/02/11 08:47:17;;;;;;;2.95;2.70;;;3.30;99.90;;;;;;4936279;29;20063;-51
2022/02/11 08:49:42;;;;;;;5.28;2.53;;;3.30;99.90;;;;;;4937154;28;20060;-53
2022/02/11 08:52:08;;;;;;;4.50;3.30;;;3.30;99.90;;;;;;4935913;29;20396;-52
2022/02/11 08:54:34;;;;;;;2.80;2.60;;;3.30;99.90;;;;;;4934042;29;20052;-52
2022/02/11 08:57:01;;;;;;;3.10;2.65;;;3.30;99.90;;;;;;4933365;29;20130;-52
2022/02/11 08:59:26;;;;;;;3.05;2.75;;;3.20;99.90;;;;;;4933834;29;20114;-51
2022/02/11 09:01:52;;;;;;;5.38;3.00;;;3.10;99.90;;;;;;4933934;28;20044;-52
2022/02/11 09:04:18;;;;;;;3.70;2.97;;;3.10;99.90;;;;;;4936125;29;20036;-53
2022/02/11 09:06:46;;;;;;;3.00;2.75;;;3.20;99.90;;;;;;4935705;29;20034;-51
2022/02/11 09:09:13;;;;;;;3.05;2.83;;;3.20;99.90;;;;;;4935202;29;20044;-52
2022/02/11 09:11:39;;;;;;;2.22;2.03;;;3.20;99.90;;;;;;4934433;29;20199;-51
2022/02/11 09:14:05;;;;;;;3.10;2.70;;;3.20;99.90;;;;;;4933594;29;20058;-52
2022/02/11 09:16:32;;;;;;;4.18;2.80;;;3.10;99.90;;;;;;4934595;29;20041;-50
2022/02/11 09:18:58;;;;;;;3.58;2.90;;;3.10;99.90;;;;;;4934825;29;20086;-55
2022/02/11 09:21:24;;;;;;;3.75;2.83;;;3.10;99.90;;;;;;4937773;28;20032;-52
2022/02/11 09:23:50;;;;;;;2.80;2.53;;;3.10;99.90;;;;;;4939152;29;20149;-53
2022/02/11 09:26:16;;;;;;;2.70;2.50;;;3.10;99.90;;;;;;4936561;29;20035;-52
2022/02/11 09:28:42;;;;;;;5.57;3.30;;;3.00;99.90;;;;;;4940631;29;20039;-52
2022/02/11 09:31:08;;;;;;;4.60;3.30;;;3.00;99.90;;;;;;4933815;29;20087;-53
2022/02/11 09:33:34;;;;;;;3.92;3.00;;;2.90;99.90;;;;;;4936885;29;20725;-53
2022/02/11 09:36:00;;;;;;;3.47;3.17;;;2.90;99.90;;;;;;4934846;29;20046;-54
2022/02/11 09:38:25;;;;;;;5.97;2.92;;;3.00;99.90;;;;;;4935900;29;20035;-53
2022/02/11 09:40:51;;;;;;;4.85;2.63;;;3.00;99.90;;;;;;4933606;29;21156;-51
2022/02/11 09:43:22;;;;;;;3.17;2.88;;;2.90;99.90;;;;;;4932316;29;20036;-51
2022/02/11 09:45:49;;;;;;;4.68;3.60;;;3.00;99.90;;;;;;4930225;29;20031;-51
2022/02/11 09:48:15;;;;;;;3.75;2.53;;;2.90;99.90;;;;;;4933155;29;20040;-51
2022/02/11 09:50:41;;;;;;;2.63;2.42;;;3.00;99.90;;;;;;4933892;29;20641;-51
2022/02/11 09:53:07;;;;;;;2.75;2.38;;;3.00;99.90;;;;;;4935594;29;20633;-52
2022/02/11 09:55:34;;;;;;;5.00;2.63;;;3.10;99.90;;;;;;4935597;29;20032;-51
2022/02/11 09:58:06;;;;;;;3.60;2.17;;;3.10;99.90;;;;;;4943813;29;20047;-54
2022/02/11 10:00:36;;;;;;;2.40;2.20;;;3.20;99.90;;;;;;4938033;28;20123;-52
2022/02/11 10:03:13;;;;;;;3.58;2.42;;;3.40;99.90;;;;;;4937144;29;21055;-51
2022/02/11 10:05:39;;;;;;;2.60;2.40;;;3.40;99.90;;;;;;4939613;29;20044;-51
2022/02/11 10:08:05;;;;;;;2.30;2.10;;;3.50;99.90;;;;;;4941661;29;20039;-53
2022/02/11 10:10:49;;;;;;;3.30;2.15;;;3.60;99.90;;;;;;4940441;29;20131;-51
2022/02/11 10:13:27;;;;;;;2.40;2.20;;;3.60;99.90;;;;;;4941784;29;20028;-51
2022/02/11 10:15:56;;;;;;;1.55;1.45;;;3.70;99.90;;;;;;4937491;29;20032;-51
2022/02/11 10:18:30;;;;;;;3.15;2.08;;;3.80;99.90;;;;;;4936738;29;20086;-52
2022/02/11 10:21:01;;;;;;;4.68;2.10;;;3.90;99.90;;;;;;4938283;29;20026;-53
2022/02/11 10:23:29;;;;;;;2.60;1.92;;;3.80;99.90;;;;;;4937355;29;20043;-52
2022/02/11 10:26:05;;;;;;;5.03;1.90;;;3.70;99.90;;;;;;4938435;29;20043;-52
2022/02/11 10:28:42;;;;;;;2.00;1.90;;;3.80;99.90;;;;;;4939231;29;20032;-53
2022/02/11 10:31:26;;;;;;;1.75;1.55;;;3.90;99.90;;;;;;4938870;28;20044;-52
2022/02/11 10:34:05;;;;;;;2.50;2.30;;;4.00;99.90;;;;;;4937908;29;20036;-53
2022/02/11 10:36:49;;;;;;;3.33;1.85;;;4.00;99.90;;;;;;4941143;29;20124;-53
2022/02/11 10:39:22;;;;;;;1.85;1.75;;;4.00;99.90;;;;;;4941483;29;20036;-52
2022/02/11 10:41:54;;;;;;;2.00;1.90;;;3.90;99.90;;;;;;4941230;29;20046;-51
2022/02/11 10:44:26;;;;;;;5.10;2.10;;;3.90;99.90;;;;;;4940799;29;20051;-51
2022/02/11 10:46:55;;;;;;;1.83;1.63;;;4.00;99.90;;;;;;4939144;29;20451;-53
2022/02/11 10:49:33;;;;;;;2.20;2.03;;;4.00;99.90;;;;;;4939777;29;20092;-51
2022/02/11 10:52:17;;;;;;;9.90;2.10;;;4.10;99.90;;;;;;4940325;29;21591;-52
2022/02/11 10:54:45;;;;;;;2.58;1.58;;;4.10;99.90;;;;;;4941175;29;20024;-51
2022/02/11 10:57:13;;;;;;;2.67;2.37;;;4.10;99.90;;;;;;4941070;29;20032;-52
2022/02/11 10:59:41;;;;;;;1.88;1.77;;;4.10;99.90;;;;;;4941651;29;20060;-51
2022/02/11 11:02:09;;;;;;;1.50;1.40;;;4.20;99.90;;;;;;4940547;28;20102;-51
2022/02/11 11:04:35;;;;;;;1.88;1.73;;;4.20;99.90;;;;;;4942800;29;20047;-51
2022/02/11 11:07:04;;;;;;;4.45;1.33;;;4.20;99.90;;;;;;4940680;29;20041;-51
2022/02/11 11:09:29;;;;;;;2.28;1.73;;;4.30;99.90;;;;;;4941646;29;20063;-51
2022/02/11 11:11:57;;;;;;;3.03;1.45;;;4.40;99.90;;;;;;4940123;29;20071;-51
2022/02/11 11:14:27;;;;;;;2.88;1.75;;;4.30;99.90;;;;;;4942838;29;20035;-51
2022/02/11 11:16:55;;;;;;;5.72;1.63;;;4.30;99.90;;;;;;4941614;29;20040;-51
2022/02/11 11:19:22;;;;;;;4.30;1.97;;;4.30;99.90;;;;;;4940706;29;20567;-52
2022/02/11 11:22:16;;;;;;;5.03;2.10;;;4.30;99.90;;;;;;4939579;29;20403;-51
2022/02/11 11:24:47;;;;;;;2.05;1.95;;;4.40;99.90;;;;;;4940975;29;20038;-52
2022/02/11 11:27:33;;;;;;;3.53;1.88;;;4.40;99.90;;;;;;4940431;29;20447;-52
2022/02/11 11:30:24;;;;;;;1.77;1.50;;;4.40;99.90;;;;;;4938622;29;20032;-54
2022/02/11 11:33:04;;;;;;;1.40;1.30;;;4.40;99.90;;;;;;4938406;29;20114;-52
2022/02/11 11:35:53;;;;;;;1.85;1.38;;;4.50;99.90;;;;;;4936032;29;20031;-54
2022/02/11 11:38:22;;;;;;;1.20;1.20;;;4.50;99.90;;;;;;4933623;29;20047;-51
2022/02/11 11:40:54;;;;;;;1.60;1.50;;;4.60;99.90;;;;;;4937792;29;20047;-51
2022/02/11 11:43:32;;;;;;;1.27;1.17;;;4.70;99.90;;;;;;4943730;29;20042;-52
2022/02/11 11:46:03;;;;;;;2.47;1.50;;;4.70;99.90;;;;;;4942297;29;20488;-52
2022/02/11 11:48:49;;;;;;;1.27;1.10;;;4.60;99.90;;;;;;4936600;29;20089;-52
2022/02/11 11:51:15;;;;;;;5.35;1.70;;;4.80;98.40;;;;;;4937215;29;20036;-52
2022/02/11 11:53:41;;;;;;;3.38;1.23;;;4.80;99.90;;;;;;4933028;29;20035;-53
2022/02/11 11:56:33;;;;;;;1.60;1.35;;;4.90;99.90;;;;;;4934961;29;20032;-52
2022/02/11 11:59:16;;;;;;;2.97;1.73;;;4.80;99.90;;;;;;4932465;29;20086;-52
2022/02/11 12:02:06;;;;;;;2.97;2.15;;;4.80;99.90;;;;;;4928071;29;20039;-53
2022/02/11 12:04:34;;;;;;;3.05;1.50;;;4.80;99.90;;;;;;4925141;29;20044;-52
2022/02/11 12:07:00;;;;;;;3.08;1.55;;;4.80;99.60;;;;;;4930605;29;20060;-52
2022/02/11 12:09:28;;;;;;;5.40;1.58;;;4.70;99.20;;;;;;4931896;29;20027;-52
2022/02/11 12:11:55;;;;;;;6.10;2.30;;;4.70;99.80;;;;;;4937374;29;20035;-52
2022/02/11 12:14:21;;;;;;;3.25;1.75;;;4.70;98.80;;;;;;4933949;29;20031;-52
2022/02/11 12:16:47;;;;;;;1.98;1.30;;;4.70;99.90;;;;;;4937976;29;20048;-53
2022/02/11 12:19:13;;;;;;;1.58;1.30;;;4.70;98.10;;;;;;4939310;29;20031;-51
2022/02/11 12:21:39;;;;;;;1.65;1.50;;;4.70;97.70;;;;;;4937472;29;20047;-51
2022/02/11 12:29:34;;;;;;;2.10;1.33;;;4.60;97.40;;;;;;4941754;29;20082;-52
2022/02/11 12:32:01;;;;;;;5.57;1.60;;;4.60;95.60;;;;;;4940002;28;20039;-53
2022/02/11 12:34:26;;;;;;;1.60;1.50;;;4.60;97.20;;;;;;4956757;29;20064;-51
2022/02/11 12:36:58;;;;;;;2.95;2.05;;;4.60;97.70;;;;;;4930974;29;20039;-53
2022/02/11 12:39:24;;;;;;;2.13;1.50;;;4.60;99.80;;;;;;4921357;29;20436;-54
2022/02/11 12:41:52;;;;;;;3.53;1.48;;;4.60;97.50;;;;;;4920164;29;20039;-51
2022/02/11 12:44:29;;;;;;;2.93;1.13;;;4.60;96.10;;;;;;4920482;29;20461;-52
2022/02/11 12:46:59;;;;;;;1.25;1.15;;;4.60;94.90;;;;;;4914982;29;20038;-52
2022/02/11 12:49:25;;;;;;;2.45;1.15;;;4.70;94.80;;;;;;4916647;29;20039;-51
2022/02/11 12:51:53;;;;;;;1.08;1.08;;;4.70;99.30;;;;;;4919055;29;20075;-52
2022/02/11 12:54:20;;;;;;;2.75;1.20;;;4.70;98.00;;;;;;4922382;29;20032;-53
2022/02/11 12:56:46;;;;;;;2.63;1.00;;;4.70;96.40;;;;;;4932479;28;20126;-55
2022/02/11 12:59:13;;;;;;;2.45;1.30;;;4.80;96.40;;;;;;4916899;29;20056;-51
2022/02/11 13:01:39;;;;;;;3.25;1.25;;;4.80;96.10;;;;;;4919819;28;20040;-51
2022/02/11 13:04:04;;;;;;;1.48;1.30;;;4.90;95.10;;;;;;4917254;29;20073;-54
2022/02/11 13:06:34;;;;;;;3.55;1.40;;;4.90;96.50;;;;;;4916182;29;20142;-51
2022/02/11 13:09:02;;;;;;;4.50;1.70;;;4.90;97.90;;;;;;4920074;29;20039;-54
2022/02/11 13:11:28;;;;;;;1.38;1.27;;;4.80;96.40;;;;;;4924315;29;20027;-54
2022/02/11 13:14:01;;;;;;;3.00;1.90;;;4.80;98.50;;;;;;4915297;29;20062;-53
2022/02/11 13:16:28;;;;;;;2.08;1.75;;;4.80;98.90;;;;;;4917294;29;20504;-54
2022/02/11 13:18:54;;;;;;;2.45;1.58;;;4.70;98.00;;;;;;4917155;29;20079;-52
2022/02/11 13:21:21;;;;;;;1.73;1.63;;;4.80;99.90;;;;;;4925638;29;20547;-51
2022/02/11 13:23:50;;;;;;;4.35;1.52;;;4.70;99.90;;;;;;4920279;29;20110;-52
2022/02/11 13:26:16;;;;;;;1.30;1.30;;;4.80;99.90;;;;;;4934517;29;20031;-52
2022/02/11 13:28:45;;;;;;;1.92;1.20;;;4.70;99.90;;;;;;4918641;29;20063;-54
2022/02/11 13:31:11;;;;;;;1.40;1.30;;;4.70;99.60;;;;;;4920730;29;20040;-52
2022/02/11 13:33:37;;;;;;;2.50;1.23;;;4.70;99.00;;;;;;4917422;29;20559;-52
2022/02/11 13:36:05;;;;;;;1.30;1.13;;;4.80;99.90;;;;;;4924402;29;20139;-52
2022/02/11 13:38:33;;;;;;;;;;;4.80;99.90;;;;;;4918468;29;20055;-53
2022/02/11 13:40:59;;;;;;;3.53;1.35;;;4.80;99.90;;;;;;4918577;29;20442;-51
2022/02/11 13:43:27;;;;;;;2.13;1.20;;;4.80;97.70;;;;;;4916632;29;20027;-52
2022/02/11 13:46:03;;;;;;;4.53;1.27;;;4.70;98.90;;;;;;4917203;29;20481;-52
2022/02/11 13:48:29;;;;;;;1.00;1.00;;;4.70;99.90;;;;;;4914987;29;20038;-51
2022/02/11 13:51:14;;;;;;;1.50;1.40;;;4.70;99.90;;;;;;4917331;29;20035;-53
2022/02/11 13:53:44;;;;;;;1.42;1.20;;;4.70;99.90;;;;;;4920999;28;20031;-53
2022/02/11 13:56:14;;;;;;;1.30;1.20;;;4.70;99.90;;;;;;4927858;28;20035;-53
2022/02/11 13:59:01;;;;;;;2.33;1.50;;;4.70;99.90;;;;;;4923295;29;20105;-54
2022/02/11 14:01:29;;;;;;;1.42;1.38;;;4.80;99.90;;;;;;4921498;28;20044;-52
2022/02/11 14:03:59;;;;;;;;;;;4.70;99.00;;;;;;4921357;29;20044;-52
2022/02/11 14:06:24;;;;;;;1.27;1.27;;;4.70;97.70;;;;;;4926325;29;19911;-52
2022/02/11 14:08:50;;;;;;;2.65;1.30;;;4.60;97.90;;;;;;4919713;28;20040;-53
2022/02/11 14:11:20;;;;;;;1.75;1.38;;;4.60;99.10;;;;;;4924236;28;20042;-52
2022/02/11 14:13:48;;;;;;;2.47;1.40;;;4.60;99.90;;;;;;4930825;29;20488;-52
2022/02/11 14:16:16;;;;;;;3.00;1.50;;;4.70;97.10;;;;;;4925598;29;22185;-53
2022/02/11 14:18:43;;;;;;;1.23;1.13;;;4.70;98.80;;;;;;4922317;29;20039;-51
2022/02/11 14:21:12;;;;;;;1.92;1.05;;;4.70;95.80;;;;;;4927696;29;20543;-52
2022/02/11 14:23:38;;;;;;;1.10;1.08;;;4.80;99.50;;;;;;4925516;29;20488;-54
2022/02/11 14:26:04;;;;;;;1.20;1.10;;;4.80;98.10;;;;;;4942294;29;20087;-52
2022/02/11 14:28:30;;;;;;;1.98;1.40;;;4.80;98.50;;;;;;4921770;29;20090;-51
2022/02/11 14:30:56;;;;;;;1.38;1.17;;;4.80;97.70;;;;;;4924879;29;20050;-52
2022/02/11 14:33:22;;;;;;;1.50;1.40;;;4.80;99.90;;;;;;4920857;29;20064;-52
2022/02/11 14:35:49;;;;;;;4.18;1.45;;;4.80;97.50;;;;;;4939159;28;20080;-52
2022/02/11 14:38:15;;;;;;;1.38;1.10;;;4.80;95.60;;;;;;4922293;29;20035;-51
2022/02/11 14:41:46;;;;;;;1.27;1.20;;;5.00;98.70;;;;;;4923091;29;20039;-53
2022/02/11 14:43:29;;;;;;;2.95;1.30;;;5.10;98.20;;;;;;4925548;29;20039;-51
2022/02/11 14:45:55;;;;;;;1.17;1.17;;;5.20;98.60;;;;;;4922157;29;20028;-51
2022/02/11 14:48:21;;;;;;;1.48;1.40;;;5.70;97.40;;;;;;4920549;29;20033;-53
2022/02/11 14:50:47;;;;;;;1.20;1.00;;;5.90;90.50;;;;;;4923358;29;20031;-52
2022/02/11 14:53:13;;;;;;;1.50;1.40;;;5.80;92.00;;;;;;4922696;29;20035;-51
2022/02/11 14:55:38;;;;;;;1.83;1.40;;;5.60;95.40;;;;;;4923145;29;20122;-52
2022/02/11 14:58:04;;;;;;;1.50;1.40;;;5.40;94.20;;;;;;4921304;29;20047;-52
2022/02/11 15:00:30;;;;;;;2.97;1.45;;;5.20;94.90;;;;;;4918962;29;20079;-52
2022/02/11 15:02:59;;;;;;;2.13;1.38;;;5.10;96.80;;;;;;4918518;29;20039;-53
2022/02/11 15:05:24;;;;;;;;;;;5.00;97.80;;;;;;4918317;29;20032;-52
2022/02/11 15:07:50;;;;;;;2.90;1.45;;;5.00;98.80;;;;;;4916774;29;19929;-54
2022/02/11 15:10:16;;;;;;;2.53;1.33;;;4.90;99.00;;;;;;4919286;29;20358;-52
2022/02/11 15:12:42;;;;;;;3.25;1.60;;;4.80;97.60;;;;;;4918128;29;20031;-52
2022/02/11 15:15:08;;;;;;;1.75;1.60;;;4.80;98.00;;;;;;4915648;29;20496;-52
2022/02/11 15:17:34;;;;;;;1.83;1.42;;;4.80;97.90;;;;;;4911560;29;20086;-52
2022/02/11 15:20:00;;;;;;;4.97;1.90;;;4.80;99.10;;;;;;4916231;29;20039;-51
2022/02/11 15:22:25;;;;;;;4.57;2.00;;;4.80;99.40;;;;;;4915292;29;20039;-52
2022/02/11 15:24:51;;;;;;;1.65;1.55;;;4.70;99.10;;;;;;4913445;29;20087;-51
2022/02/11 15:27:17;;;;;;;4.32;1.85;;;4.80;99.90;;;;;;4914087;29;20043;-51
2022/02/11 15:29:43;;;;;;;3.20;1.50;;;4.70;99.90;;;;;;4915759;29;20046;-52
2022/02/11 15:32:10;;;;;;;6.25;1.95;;;4.70;99.90;;;;;;4915032;29;20039;-52
2022/02/11 15:34:37;;;;;;;2.83;2.00;;;4.60;99.90;;;;;;4919742;29;20547;-51
2022/02/11 15:37:04;;;;;;;3.10;1.67;;;4.60;99.90;;;;;;4920186;29;20036;-52
2022/02/11 15:39:29;;;;;;;1.60;1.50;;;4.50;99.80;;;;;;4919300;29;20304;-52
2022/02/11 15:41:55;;;;;;;1.63;1.52;;;4.50;99.90;;;;;;4921745;29;20038;-52
2022/02/11 15:44:20;;;;;;;2.60;1.58;;;4.50;99.90;;;;;;4920688;29;20027;-52
2022/02/11 15:46:46;;;;;;;3.53;1.60;;;4.40;99.90;;;;;;4918833;29;20074;-54
2022/02/11 15:49:12;;;;;;;1.33;1.23;;;4.30;99.20;;;;;;4920282;29;20648;-51
2022/02/11 15:51:38;;;;;;;5.50;1.95;;;4.30;99.90;;;;;;4920613;29;20071;-52
2022/02/11 15:54:03;;;;;;;3.17;1.60;;;4.30;99.90;;;;;;4921966;29;20067;-52
2022/02/11 15:56:29;;;;;;;1.50;1.40;;;4.30;99.90;;;;;;4919716;29;20079;-51
2022/02/11 15:58:54;;;;;;;2.83;1.50;;;4.20;99.10;;;;;;4920268;29;20052;-51
2022/02/11 16:01:20;;;;;;;4.80;1.80;;;4.20;99.90;;;;;;4919897;29;20109;-52
2022/02/11 16:03:46;;;;;;;4.15;1.70;;;4.20;99.30;;;;;;4921979;29;20047;-51
2022/02/11 16:06:12;;;;;;;5.53;2.33;;;4.10;99.90;;;;;;4922303;29;20039;-52
2022/02/11 16:08:41;;;;;;;4.38;1.90;;;4.10;99.90;;;;;;4921422;29;20174;-53
2022/02/11 16:11:07;;;;;;;3.83;2.00;;;4.10;99.90;;;;;;4920057;29;20031;-51
2022/02/11 16:13:32;;;;;;;1.92;1.70;;;4.10;99.90;;;;;;4922482;29;20032;-51
2022/02/11 16:15:58;;;;;;;1.60;1.50;;;4.00;99.90;;;;;;4919436;29;20028;-53
2022/02/11 16:18:24;;;;;;;2.63;1.52;;;4.00;99.90;;;;;;4921257;29;20432;-51
2022/02/11 16:20:51;;;;;;;3.25;2.15;;;4.00;99.90;;;;;;4919792;29;20032;-51
2022/02/11 16:23:19;;;;;;;2.75;1.90;;;4.00;99.90;;;;;;4920000;29;20091;-51
2022/02/11 16:25:45;;;;;;;6.20;2.17;;;4.00;99.90;;;;;;4923341;29;20066;-54
2022/02/11 16:28:14;;;;;;;2.40;1.77;;;4.00;99.90;;;;;;4920911;29;20039;-52
2022/02/11 16:30:40;;;;;;;2.05;1.67;;;4.00;99.90;;;;;;4922282;29;20102;-52
2022/02/11 16:33:07;;;;;;;1.55;1.45;;;4.00;99.90;;;;;;4922360;29;20039;-51
2022/02/11 16:35:35;;;;;;;4.70;2.10;;;4.00;99.90;;;;;;4923467;29;20028;-52
2022/02/11 16:38:01;;;;;;;1.60;1.50;;;4.00;99.90;;;;;;4921659;29;20760;-52
2022/02/11 16:40:27;;;;;;;3.38;1.58;;;4.00;99.90;;;;;;4922282;28;20183;-52
2022/02/11 16:42:54;;;;;;;2.10;1.65;;;4.00;99.90;;;;;;4922147;29;20117;-51
2022/02/11 16:45:19;;;;;;;2.03;1.63;;;4.00;99.90;;;;;;4923518;29;20062;-51
2022/02/11 16:47:45;;;;;;;1.60;1.50;;;4.10;99.90;;;;;;4921807;29;20535;-51
2022/02/11 16:50:11;;;;;;;3.22;1.55;;;4.00;99.90;;;;;;4922014;29;20036;-52
2022/02/11 16:52:38;;;;;;;5.18;1.92;;;4.00;99.90;;;;;;4920795;29;20153;-53
2022/02/11 16:55:06;;;;;;;2.95;1.70;;;4.00;99.90;;;;;;4921646;29;20203;-51
2022/02/11 16:57:32;;;;;;;7.38;1.90;;;4.00;99.90;;;;;;4922247;29;22197;-51